sensor_id;sensor_type;location;lat;lon;timestamp;P1;durP1;ratioP1;P2;durP2;ratioP2
79229;SDS011;68663;49.122;17.544;2023-09-18T00:00:44;6.30;;;5.68;;
79229;SDS011;68663;49.122;17.544;2023-09-18T00:03:10;5.90;;;5.32;;
79229;SDS011;68663;49.122;17.544;2023-09-18T00:05:35;7.30;;;6.05;;
79229;SDS011;68663;49.122;17.544;2023-09-18T00:08:00;6.18;;;5.57;;
79229;SDS011;68663;49.122;17.544;2023-09-18T00:10:29;6.15;;;5.32;;
79229;SDS011;68663;49.122;17.544;2023-09-18T00:12:55;7.25;;;6.07;;
79229;SDS011;68663;49.122;17.544;2023-09-18T00:15:21;6.75;;;5.97;;
79229;SDS011;68663;49.122;17.544;2023-09-18T00:17:46;6.95;;;6.00;;
79229;SDS011;68663;49.122;17.544;2023-09-18T00:20:12;6.30;;;5.33;;
79229;SDS011;68663;49.122;17.544;2023-09-18T00:22:38;6.05;;;5.45;;
79229;SDS011;68663;49.122;17.544;2023-09-18T00:25:04;6.18;;;5.57;;
79229;SDS011;68663;49.122;17.544;2023-09-18T00:27:29;5.90;;;5.28;;
79229;SDS011;68663;49.122;17.544;2023-09-18T00:29:55;6.22;;;5.65;;
79229;SDS011;68663;49.122;17.544;2023-09-18T00:32:21;7.13;;;5.20;;
79229;SDS011;68663;49.122;17.544;2023-09-18T00:34:46;6.38;;;5.78;;
79229;SDS011;68663;49.122;17.544;2023-09-18T00:37:11;6.13;;;4.97;;
79229;SDS011;68663;49.122;17.544;2023-09-18T00:39:37;6.10;;;5.50;;
79229;SDS011;68663;49.122;17.544;2023-09-18T00:42:03;5.53;;;4.85;;
79229;SDS011;68663;49.122;17.544;2023-09-18T00:44:29;5.80;;;5.22;;
79229;SDS011;68663;49.122;17.544;2023-09-18T00:46:54;6.05;;;5.05;;
79229;SDS011;68663;49.122;17.544;2023-09-18T00:49:20;5.50;;;5.00;;
79229;SDS011;68663;49.122;17.544;2023-09-18T00:51:47;5.65;;;5.07;;
79229;SDS011;68663;49.122;17.544;2023-09-18T00:54:14;5.50;;;4.93;;
79229;SDS011;68663;49.122;17.544;2023-09-18T00:56:43;5.90;;;5.30;;
79229;SDS011;68663;49.122;17.544;2023-09-18T00:59:10;5.57;;;4.97;;
79229;SDS011;68663;49.122;17.544;2023-09-18T01:01:36;5.78;;;5.10;;
79229;SDS011;68663;49.122;17.544;2023-09-18T01:04:02;5.35;;;4.85;;
79229;SDS011;68663;49.122;17.544;2023-09-18T01:06:28;5.55;;;4.88;;
79229;SDS011;68663;49.122;17.544;2023-09-18T01:08:55;5.63;;;5.13;;
79229;SDS011;68663;49.122;17.544;2023-09-18T01:11:35;7.13;;;5.38;;
79229;SDS011;68663;49.122;17.544;2023-09-18T01:16:44;6.97;;;6.05;;
79229;SDS011;68663;49.122;17.544;2023-09-18T01:19:16;7.07;;;5.65;;
79229;SDS011;68663;49.122;17.544;2023-09-18T01:21:41;6.45;;;5.35;;
79229;SDS011;68663;49.122;17.544;2023-09-18T01:24:10;5.78;;;5.28;;
79229;SDS011;68663;49.122;17.544;2023-09-18T01:26:36;5.88;;;5.28;;
79229;SDS011;68663;49.122;17.544;2023-09-18T01:29:01;7.28;;;5.10;;
79229;SDS011;68663;49.122;17.544;2023-09-18T01:31:27;6.03;;;5.40;;
79229;SDS011;68663;49.122;17.544;2023-09-18T01:33:53;5.93;;;5.22;;
79229;SDS011;68663;49.122;17.544;2023-09-18T01:36:20;6.28;;;5.13;;
79229;SDS011;68663;49.122;17.544;2023-09-18T01:38:45;6.03;;;5.43;;
79229;SDS011;68663;49.122;17.544;2023-09-18T01:41:11;7.13;;;5.95;;
79229;SDS011;68663;49.122;17.544;2023-09-18T01:43:37;5.75;;;5.20;;
79229;SDS011;68663;49.122;17.544;2023-09-18T01:46:02;6.88;;;6.18;;
79229;SDS011;68663;49.122;17.544;2023-09-18T01:48:29;5.65;;;5.15;;
79229;SDS011;68663;49.122;17.544;2023-09-18T01:50:54;7.57;;;5.93;;
79229;SDS011;68663;49.122;17.544;2023-09-18T01:53:20;6.70;;;6.05;;
79229;SDS011;68663;49.122;17.544;2023-09-18T01:55:45;5.60;;;5.10;;
79229;SDS011;68663;49.122;17.544;2023-09-18T01:58:12;5.85;;;5.30;;
79229;SDS011;68663;49.122;17.544;2023-09-18T02:03:43;5.82;;;5.20;;
79229;SDS011;68663;49.122;17.544;2023-09-18T02:06:10;6.53;;;5.93;;
79229;SDS011;68663;49.122;17.544;2023-09-18T02:08:36;6.57;;;5.95;;
79229;SDS011;68663;49.122;17.544;2023-09-18T02:11:01;7.63;;;6.75;;
79229;SDS011;68663;49.122;17.544;2023-09-18T02:13:30;8.48;;;7.03;;
79229;SDS011;68663;49.122;17.544;2023-09-18T02:15:56;7.63;;;6.75;;
79229;SDS011;68663;49.122;17.544;2023-09-18T02:18:21;8.77;;;7.78;;
79229;SDS011;68663;49.122;17.544;2023-09-18T02:20:47;8.70;;;7.85;;
79229;SDS011;68663;49.122;17.544;2023-09-18T02:23:14;10.32;;;7.40;;
79229;SDS011;68663;49.122;17.544;2023-09-18T02:25:40;9.15;;;8.25;;
79229;SDS011;68663;49.122;17.544;2023-09-18T02:28:09;10.35;;;8.27;;
79229;SDS011;68663;49.122;17.544;2023-09-18T02:30:34;9.23;;;8.32;;
79229;SDS011;68663;49.122;17.544;2023-09-18T02:33:00;8.93;;;8.03;;
79229;SDS011;68663;49.122;17.544;2023-09-18T02:35:28;10.00;;;8.85;;
79229;SDS011;68663;49.122;17.544;2023-09-18T02:37:54;9.00;;;8.10;;
79229;SDS011;68663;49.122;17.544;2023-09-18T02:40:20;9.63;;;8.25;;
79229;SDS011;68663;49.122;17.544;2023-09-18T02:42:45;11.75;;;10.55;;
79229;SDS011;68663;49.122;17.544;2023-09-18T02:45:10;9.88;;;8.88;;
79229;SDS011;68663;49.122;17.544;2023-09-18T02:47:36;9.05;;;8.15;;
79229;SDS011;68663;49.122;17.544;2023-09-18T02:50:06;9.18;;;8.27;;
79229;SDS011;68663;49.122;17.544;2023-09-18T02:52:31;9.63;;;8.63;;
79229;SDS011;68663;49.122;17.544;2023-09-18T02:54:57;10.07;;;9.07;;
79229;SDS011;68663;49.122;17.544;2023-09-18T02:57:22;9.52;;;8.52;;
79229;SDS011;68663;49.122;17.544;2023-09-18T02:59:48;11.10;;;9.05;;
79229;SDS011;68663;49.122;17.544;2023-09-18T03:02:13;9.93;;;8.88;;
79229;SDS011;68663;49.122;17.544;2023-09-18T03:04:39;9.67;;;8.77;;
79229;SDS011;68663;49.122;17.544;2023-09-18T03:07:04;10.32;;;9.30;;
79229;SDS011;68663;49.122;17.544;2023-09-18T03:09:30;10.10;;;8.65;;
79229;SDS011;68663;49.122;17.544;2023-09-18T03:11:55;9.73;;;8.77;;
79229;SDS011;68663;49.122;17.544;2023-09-18T03:14:21;9.07;;;8.18;;
79229;SDS011;68663;49.122;17.544;2023-09-18T03:16:46;8.57;;;7.78;;
79229;SDS011;68663;49.122;17.544;2023-09-18T03:19:12;10.57;;;8.87;;
79229;SDS011;68663;49.122;17.544;2023-09-18T03:21:37;9.70;;;8.45;;
79229;SDS011;68663;49.122;17.544;2023-09-18T03:24:03;9.35;;;8.38;;
79229;SDS011;68663;49.122;17.544;2023-09-18T03:26:29;9.60;;;8.65;;
79229;SDS011;68663;49.122;17.544;2023-09-18T03:28:54;19.88;;;8.75;;
79229;SDS011;68663;49.122;17.544;2023-09-18T03:31:20;10.00;;;9.00;;
79229;SDS011;68663;49.122;17.544;2023-09-18T03:33:45;10.53;;;8.73;;
79229;SDS011;68663;49.122;17.544;2023-09-18T03:36:11;10.80;;;9.45;;
79229;SDS011;68663;49.122;17.544;2023-09-18T03:38:37;9.90;;;8.90;;
79229;SDS011;68663;49.122;17.544;2023-09-18T03:41:02;11.37;;;10.13;;
79229;SDS011;68663;49.122;17.544;2023-09-18T03:43:28;11.70;;;9.57;;
79229;SDS011;68663;49.122;17.544;2023-09-18T03:45:53;10.45;;;9.35;;
79229;SDS011;68663;49.122;17.544;2023-09-18T03:48:18;12.20;;;10.23;;
79229;SDS011;68663;49.122;17.544;2023-09-18T03:50:46;10.98;;;9.85;;
79229;SDS011;68663;49.122;17.544;2023-09-18T03:53:12;11.00;;;9.90;;
79229;SDS011;68663;49.122;17.544;2023-09-18T03:55:37;12.45;;;11.27;;
79229;SDS011;68663;49.122;17.544;2023-09-18T03:58:03;14.43;;;12.40;;
79229;SDS011;68663;49.122;17.544;2023-09-18T04:00:30;13.95;;;11.38;;
79229;SDS011;68663;49.122;17.544;2023-09-18T04:02:55;12.90;;;11.70;;
79229;SDS011;68663;49.122;17.544;2023-09-18T04:05:21;12.50;;;11.30;;
79229;SDS011;68663;49.122;17.544;2023-09-18T04:07:46;22.73;;;13.25;;
79229;SDS011;68663;49.122;17.544;2023-09-18T04:10:12;25.35;;;14.52;;
79229;SDS011;68663;49.122;17.544;2023-09-18T04:12:47;20.50;;;12.82;;
79229;SDS011;68663;49.122;17.544;2023-09-18T04:15:15;24.02;;;14.43;;
79229;SDS011;68663;49.122;17.544;2023-09-18T04:17:42;26.63;;;14.98;;
79229;SDS011;68663;49.122;17.544;2023-09-18T04:20:07;22.50;;;14.57;;
79229;SDS011;68663;49.122;17.544;2023-09-18T04:22:33;22.85;;;13.85;;
79229;SDS011;68663;49.122;17.544;2023-09-18T04:24:59;19.83;;;14.85;;
79229;SDS011;68663;49.122;17.544;2023-09-18T04:27:24;19.17;;;13.63;;
79229;SDS011;68663;49.122;17.544;2023-09-18T04:29:50;19.13;;;13.85;;
79229;SDS011;68663;49.122;17.544;2023-09-18T04:32:15;24.97;;;14.63;;
79229;SDS011;68663;49.122;17.544;2023-09-18T04:34:41;21.00;;;14.55;;
79229;SDS011;68663;49.122;17.544;2023-09-18T04:37:07;17.15;;;13.00;;
79229;SDS011;68663;49.122;17.544;2023-09-18T04:39:32;22.10;;;13.80;;
79229;SDS011;68663;49.122;17.544;2023-09-18T04:42:00;20.23;;;13.80;;
79229;SDS011;68663;49.122;17.544;2023-09-18T04:44:28;18.85;;;13.73;;
79229;SDS011;68663;49.122;17.544;2023-09-18T04:46:54;18.48;;;13.20;;
79229;SDS011;68663;49.122;17.544;2023-09-18T04:49:19;20.35;;;13.35;;
79229;SDS011;68663;49.122;17.544;2023-09-18T04:51:45;19.45;;;12.43;;
79229;SDS011;68663;49.122;17.544;2023-09-18T04:54:11;17.03;;;13.30;;
79229;SDS011;68663;49.122;17.544;2023-09-18T04:56:36;15.63;;;13.05;;
79229;SDS011;68663;49.122;17.544;2023-09-18T04:59:02;16.25;;;12.30;;
79229;SDS011;68663;49.122;17.544;2023-09-18T05:01:28;14.50;;;12.85;;
79229;SDS011;68663;49.122;17.544;2023-09-18T05:03:55;16.80;;;12.40;;
79229;SDS011;68663;49.122;17.544;2023-09-18T05:06:20;13.88;;;11.75;;
79229;SDS011;68663;49.122;17.544;2023-09-18T05:08:45;12.60;;;11.30;;
79229;SDS011;68663;49.122;17.544;2023-09-18T05:11:11;14.60;;;12.45;;
79229;SDS011;68663;49.122;17.544;2023-09-18T05:13:36;15.70;;;12.73;;
79229;SDS011;68663;49.122;17.544;2023-09-18T05:16:02;16.53;;;13.20;;
79229;SDS011;68663;49.122;17.544;2023-09-18T05:18:28;16.15;;;12.20;;
79229;SDS011;68663;49.122;17.544;2023-09-18T05:20:54;12.93;;;11.63;;
79229;SDS011;68663;49.122;17.544;2023-09-18T05:23:19;13.10;;;11.75;;
79229;SDS011;68663;49.122;17.544;2023-09-18T05:25:44;15.32;;;11.70;;
79229;SDS011;68663;49.122;17.544;2023-09-18T05:28:10;15.38;;;12.20;;
79229;SDS011;68663;49.122;17.544;2023-09-18T05:30:36;13.43;;;11.63;;
79229;SDS011;68663;49.122;17.544;2023-09-18T05:33:04;12.85;;;11.45;;
79229;SDS011;68663;49.122;17.544;2023-09-18T05:35:30;13.73;;;12.27;;
79229;SDS011;68663;49.122;17.544;2023-09-18T05:37:57;14.88;;;11.95;;
79229;SDS011;68663;49.122;17.544;2023-09-18T05:40:23;13.07;;;11.27;;
79229;SDS011;68663;49.122;17.544;2023-09-18T05:42:51;13.13;;;11.20;;
79229;SDS011;68663;49.122;17.544;2023-09-18T05:45:18;14.27;;;11.73;;
79229;SDS011;68663;49.122;17.544;2023-09-18T05:47:43;13.23;;;11.93;;
79229;SDS011;68663;49.122;17.544;2023-09-18T05:50:09;14.13;;;11.90;;
79229;SDS011;68663;49.122;17.544;2023-09-18T05:52:39;11.88;;;10.70;;
79229;SDS011;68663;49.122;17.544;2023-09-18T05:55:05;12.30;;;11.00;;
79229;SDS011;68663;49.122;17.544;2023-09-18T05:57:34;13.18;;;10.63;;
79229;SDS011;68663;49.122;17.544;2023-09-18T05:59:59;13.13;;;11.73;;
79229;SDS011;68663;49.122;17.544;2023-09-18T06:02:25;13.93;;;11.55;;
79229;SDS011;68663;49.122;17.544;2023-09-18T06:04:54;15.85;;;11.30;;
79229;SDS011;68663;49.122;17.544;2023-09-18T06:07:25;12.63;;;11.35;;
79229;SDS011;68663;49.122;17.544;2023-09-18T06:09:51;12.43;;;11.07;;
79229;SDS011;68663;49.122;17.544;2023-09-18T06:12:17;11.32;;;10.23;;
79229;SDS011;68663;49.122;17.544;2023-09-18T06:14:44;13.27;;;11.30;;
79229;SDS011;68663;49.122;17.544;2023-09-18T06:17:10;13.60;;;11.77;;
79229;SDS011;68663;49.122;17.544;2023-09-18T06:19:35;12.80;;;11.45;;
79229;SDS011;68663;49.122;17.544;2023-09-18T06:22:01;12.73;;;11.48;;
79229;SDS011;68663;49.122;17.544;2023-09-18T06:24:27;15.02;;;12.68;;
79229;SDS011;68663;49.122;17.544;2023-09-18T06:26:52;22.83;;;17.02;;
79229;SDS011;68663;49.122;17.544;2023-09-18T06:29:18;19.52;;;15.27;;
79229;SDS011;68663;49.122;17.544;2023-09-18T06:31:44;25.50;;;20.80;;
79229;SDS011;68663;49.122;17.544;2023-09-18T06:34:09;16.30;;;13.75;;
79229;SDS011;68663;49.122;17.544;2023-09-18T06:36:35;13.40;;;11.90;;
79229;SDS011;68663;49.122;17.544;2023-09-18T06:39:00;14.63;;;12.05;;
79229;SDS011;68663;49.122;17.544;2023-09-18T06:41:26;13.75;;;11.73;;
79229;SDS011;68663;49.122;17.544;2023-09-18T06:43:51;15.25;;;12.40;;
79229;SDS011;68663;49.122;17.544;2023-09-18T06:46:17;13.07;;;11.77;;
79229;SDS011;68663;49.122;17.544;2023-09-18T06:48:43;13.80;;;12.20;;
79229;SDS011;68663;49.122;17.544;2023-09-18T06:51:10;14.90;;;13.20;;
79229;SDS011;68663;49.122;17.544;2023-09-18T06:53:36;12.27;;;11.13;;
79229;SDS011;68663;49.122;17.544;2023-09-18T06:56:01;13.85;;;12.52;;
79229;SDS011;68663;49.122;17.544;2023-09-18T06:58:27;14.00;;;12.60;;
79229;SDS011;68663;49.122;17.544;2023-09-18T07:00:52;14.55;;;12.00;;
79229;SDS011;68663;49.122;17.544;2023-09-18T07:03:18;15.60;;;13.10;;
79229;SDS011;68663;49.122;17.544;2023-09-18T07:05:43;13.65;;;12.25;;
79229;SDS011;68663;49.122;17.544;2023-09-18T07:08:09;13.10;;;11.82;;
79229;SDS011;68663;49.122;17.544;2023-09-18T07:10:37;14.18;;;12.73;;
79229;SDS011;68663;49.122;17.544;2023-09-18T07:13:03;13.10;;;11.77;;
79229;SDS011;68663;49.122;17.544;2023-09-18T07:15:28;13.82;;;11.65;;
79229;SDS011;68663;49.122;17.544;2023-09-18T07:17:53;13.55;;;11.25;;
79229;SDS011;68663;49.122;17.544;2023-09-18T07:20:19;12.73;;;11.38;;
79229;SDS011;68663;49.122;17.544;2023-09-18T07:22:47;13.63;;;12.32;;
79229;SDS011;68663;49.122;17.544;2023-09-18T07:25:13;14.23;;;11.30;;
79229;SDS011;68663;49.122;17.544;2023-09-18T07:27:39;12.93;;;11.63;;
79229;SDS011;68663;49.122;17.544;2023-09-18T07:30:09;16.52;;;12.40;;
79229;SDS011;68663;49.122;17.544;2023-09-18T07:32:35;12.38;;;11.20;;
79229;SDS011;68663;49.122;17.544;2023-09-18T07:35:01;12.25;;;11.05;;
79229;SDS011;68663;49.122;17.544;2023-09-18T07:37:27;13.23;;;10.95;;
79229;SDS011;68663;49.122;17.544;2023-09-18T07:39:52;12.98;;;11.60;;
79229;SDS011;68663;49.122;17.544;2023-09-18T07:42:18;15.57;;;12.02;;
79229;SDS011;68663;49.122;17.544;2023-09-18T07:44:44;13.02;;;11.73;;
79229;SDS011;68663;49.122;17.544;2023-09-18T07:47:09;13.07;;;11.77;;
79229;SDS011;68663;49.122;17.544;2023-09-18T07:49:34;13.13;;;10.88;;
79229;SDS011;68663;49.122;17.544;2023-09-18T07:52:00;13.00;;;11.75;;
79229;SDS011;68663;49.122;17.544;2023-09-18T07:54:25;11.77;;;10.55;;
79229;SDS011;68663;49.122;17.544;2023-09-18T07:56:51;13.93;;;12.15;;
79229;SDS011;68663;49.122;17.544;2023-09-18T07:59:16;12.52;;;11.27;;
79229;SDS011;68663;49.122;17.544;2023-09-18T08:01:42;12.10;;;10.93;;
79229;SDS011;68663;49.122;17.544;2023-09-18T08:04:07;13.10;;;11.80;;
79229;SDS011;68663;49.122;17.544;2023-09-18T08:06:33;11.15;;;10.13;;
79229;SDS011;68663;49.122;17.544;2023-09-18T08:08:58;11.13;;;10.00;;
79229;SDS011;68663;49.122;17.544;2023-09-18T08:11:25;12.63;;;11.40;;
79229;SDS011;68663;49.122;17.544;2023-09-18T08:13:50;12.43;;;11.23;;
79229;SDS011;68663;49.122;17.544;2023-09-18T08:16:15;11.27;;;10.25;;
79229;SDS011;68663;49.122;17.544;2023-09-18T08:18:42;12.80;;;11.60;;
79229;SDS011;68663;49.122;17.544;2023-09-18T08:21:08;12.25;;;11.05;;
79229;SDS011;68663;49.122;17.544;2023-09-18T08:23:34;12.70;;;11.40;;
79229;SDS011;68663;49.122;17.544;2023-09-18T08:26:01;12.38;;;11.15;;
79229;SDS011;68663;49.122;17.544;2023-09-18T08:28:28;13.13;;;11.20;;
79229;SDS011;68663;49.122;17.544;2023-09-18T08:30:54;12.55;;;11.25;;
79229;SDS011;68663;49.122;17.544;2023-09-18T08:33:20;15.13;;;11.02;;
79229;SDS011;68663;49.122;17.544;2023-09-18T08:35:45;13.05;;;11.57;;
79229;SDS011;68663;49.122;17.544;2023-09-18T08:38:11;12.68;;;11.32;;
79229;SDS011;68663;49.122;17.544;2023-09-18T08:40:39;12.55;;;11.32;;
79229;SDS011;68663;49.122;17.544;2023-09-18T08:43:05;14.43;;;11.75;;
79229;SDS011;68663;49.122;17.544;2023-09-18T08:48:05;14.70;;;11.57;;
79229;SDS011;68663;49.122;17.544;2023-09-18T08:50:31;13.07;;;11.70;;
79229;SDS011;68663;49.122;17.544;2023-09-18T08:52:57;12.85;;;11.60;;
79229;SDS011;68663;49.122;17.544;2023-09-18T08:55:24;12.90;;;11.52;;
79229;SDS011;68663;49.122;17.544;2023-09-18T08:57:49;13.48;;;12.05;;
79229;SDS011;68663;49.122;17.544;2023-09-18T09:00:17;13.43;;;12.05;;
79229;SDS011;68663;49.122;17.544;2023-09-18T09:02:43;13.70;;;12.40;;
79229;SDS011;68663;49.122;17.544;2023-09-18T09:05:09;14.50;;;12.95;;
79229;SDS011;68663;49.122;17.544;2023-09-18T09:07:34;15.23;;;12.57;;
79229;SDS011;68663;49.122;17.544;2023-09-18T09:10:00;14.63;;;13.20;;
79229;SDS011;68663;49.122;17.544;2023-09-18T09:15:14;16.15;;;14.45;;
79229;SDS011;68663;49.122;17.544;2023-09-18T09:17:40;14.85;;;12.60;;
79229;SDS011;68663;49.122;17.544;2023-09-18T09:20:13;14.90;;;13.48;;
79229;SDS011;68663;49.122;17.544;2023-09-18T09:22:40;16.02;;;14.35;;
79229;SDS011;68663;49.122;17.544;2023-09-18T09:25:25;14.43;;;12.98;;
79229;SDS011;68663;49.122;17.544;2023-09-18T09:27:55;16.85;;;15.15;;
79229;SDS011;68663;49.122;17.544;2023-09-18T09:30:21;17.95;;;13.48;;
79229;SDS011;68663;49.122;17.544;2023-09-18T09:32:49;15.88;;;13.98;;
79229;SDS011;68663;49.122;17.544;2023-09-18T09:35:23;16.25;;;14.55;;
79229;SDS011;68663;49.122;17.544;2023-09-18T09:38:08;16.60;;;14.90;;
79229;SDS011;68663;49.122;17.544;2023-09-18T09:40:38;17.80;;;15.95;;
79229;SDS011;68663;49.122;17.544;2023-09-18T09:43:05;16.67;;;14.65;;
79229;SDS011;68663;49.122;17.544;2023-09-18T09:45:33;16.33;;;14.82;;
79229;SDS011;68663;49.122;17.544;2023-09-18T09:48:02;16.95;;;15.25;;
79229;SDS011;68663;49.122;17.544;2023-09-18T09:50:31;17.00;;;15.43;;
79229;SDS011;68663;49.122;17.544;2023-09-18T09:52:57;16.77;;;15.18;;
79229;SDS011;68663;49.122;17.544;2023-09-18T10:03:08;18.67;;;16.70;;
79229;SDS011;68663;49.122;17.544;2023-09-18T10:05:35;18.67;;;16.88;;
79229;SDS011;68663;49.122;17.544;2023-09-18T10:10:37;18.65;;;16.88;;
79229;SDS011;68663;49.122;17.544;2023-09-18T10:13:18;18.65;;;16.85;;
79229;SDS011;68663;49.122;17.544;2023-09-18T10:15:49;17.50;;;15.85;;
79229;SDS011;68663;49.122;17.544;2023-09-18T10:18:22;18.42;;;16.52;;
79229;SDS011;68663;49.122;17.544;2023-09-18T10:20:51;18.27;;;16.58;;
79229;SDS011;68663;49.122;17.544;2023-09-18T10:24:08;17.23;;;15.52;;
79229;SDS011;68663;49.122;17.544;2023-09-18T10:26:16;20.77;;;17.02;;
79229;SDS011;68663;49.122;17.544;2023-09-18T10:28:49;16.55;;;15.00;;
79229;SDS011;68663;49.122;17.544;2023-09-18T10:31:18;17.13;;;15.48;;
79229;SDS011;68663;49.122;17.544;2023-09-18T10:33:45;17.92;;;16.17;;
79229;SDS011;68663;49.122;17.544;2023-09-18T10:36:13;17.25;;;15.52;;
79229;SDS011;68663;49.122;17.544;2023-09-18T10:38:42;17.10;;;15.50;;
79229;SDS011;68663;49.122;17.544;2023-09-18T10:41:14;16.50;;;15.00;;
79229;SDS011;68663;49.122;17.544;2023-09-18T10:43:44;16.33;;;14.63;;
79229;SDS011;68663;49.122;17.544;2023-09-18T10:46:11;16.88;;;15.07;;
79229;SDS011;68663;49.122;17.544;2023-09-18T10:48:39;17.50;;;15.68;;
79229;SDS011;68663;49.122;17.544;2023-09-18T10:51:07;20.60;;;14.02;;
79229;SDS011;68663;49.122;17.544;2023-09-18T10:53:33;16.25;;;14.60;;
79229;SDS011;68663;49.122;17.544;2023-09-18T10:56:00;16.40;;;14.80;;
79229;SDS011;68663;49.122;17.544;2023-09-18T10:58:32;15.93;;;14.30;;
79229;SDS011;68663;49.122;17.544;2023-09-18T11:01:01;16.15;;;14.60;;
79229;SDS011;68663;49.122;17.544;2023-09-18T11:03:29;18.52;;;15.13;;
79229;SDS011;68663;49.122;17.544;2023-09-18T11:06:05;16.52;;;14.75;;
79229;SDS011;68663;49.122;17.544;2023-09-18T11:08:33;16.80;;;15.13;;
79229;SDS011;68663;49.122;17.544;2023-09-18T11:11:19;16.08;;;14.38;;
79229;SDS011;68663;49.122;17.544;2023-09-18T11:13:51;15.85;;;14.38;;
79229;SDS011;68663;49.122;17.544;2023-09-18T11:18:54;16.80;;;14.57;;
79229;SDS011;68663;49.122;17.544;2023-09-18T11:21:40;16.08;;;14.38;;
79229;SDS011;68663;49.122;17.544;2023-09-18T11:24:06;14.85;;;13.43;;
79229;SDS011;68663;49.122;17.544;2023-09-18T11:26:39;18.60;;;13.85;;
79229;SDS011;68663;49.122;17.544;2023-09-18T11:29:07;18.88;;;15.07;;
79229;SDS011;68663;49.122;17.544;2023-09-18T11:31:44;14.82;;;13.10;;
79229;SDS011;68663;49.122;17.544;2023-09-18T11:34:26;15.98;;;14.05;;
79229;SDS011;68663;49.122;17.544;2023-09-18T11:37:22;14.13;;;12.80;;
79229;SDS011;68663;49.122;17.544;2023-09-18T11:39:48;14.55;;;12.98;;
79229;SDS011;68663;49.122;17.544;2023-09-18T11:42:18;15.25;;;13.15;;
79229;SDS011;68663;49.122;17.544;2023-09-18T11:44:47;13.45;;;12.15;;
79229;SDS011;68663;49.122;17.544;2023-09-18T11:47:17;19.40;;;13.77;;
79229;SDS011;68663;49.122;17.544;2023-09-18T11:49:54;15.75;;;13.38;;
79229;SDS011;68663;49.122;17.544;2023-09-18T11:52:23;14.88;;;13.27;;
79229;SDS011;68663;49.122;17.544;2023-09-18T11:54:55;14.48;;;12.98;;
79229;SDS011;68663;49.122;17.544;2023-09-18T11:57:23;15.32;;;13.77;;
79229;SDS011;68663;49.122;17.544;2023-09-18T11:59:50;15.57;;;14.05;;
79229;SDS011;68663;49.122;17.544;2023-09-18T12:02:26;13.80;;;12.40;;
79229;SDS011;68663;49.122;17.544;2023-09-18T12:05:15;14.75;;;13.25;;
79229;SDS011;68663;49.122;17.544;2023-09-18T12:07:43;14.00;;;12.40;;
79229;SDS011;68663;49.122;17.544;2023-09-18T12:10:10;16.00;;;12.15;;
79229;SDS011;68663;49.122;17.544;2023-09-18T12:12:43;14.75;;;13.32;;
79229;SDS011;68663;49.122;17.544;2023-09-18T12:15:12;16.45;;;13.07;;
79229;SDS011;68663;49.122;17.544;2023-09-18T12:17:44;14.18;;;12.73;;
79229;SDS011;68663;49.122;17.544;2023-09-18T12:20:17;13.77;;;11.95;;
79229;SDS011;68663;49.122;17.544;2023-09-18T12:22:46;14.02;;;12.38;;
79229;SDS011;68663;49.122;17.544;2023-09-18T12:25:16;14.25;;;12.05;;
79229;SDS011;68663;49.122;17.544;2023-09-18T12:27:44;14.38;;;12.95;;
79229;SDS011;68663;49.122;17.544;2023-09-18T12:30:11;13.75;;;12.35;;
79229;SDS011;68663;49.122;17.544;2023-09-18T12:32:40;13.18;;;11.88;;
79229;SDS011;68663;49.122;17.544;2023-09-18T12:35:05;13.75;;;12.35;;
79229;SDS011;68663;49.122;17.544;2023-09-18T12:37:32;16.20;;;13.05;;
79229;SDS011;68663;49.122;17.544;2023-09-18T12:39:59;15.00;;;12.57;;
79229;SDS011;68663;49.122;17.544;2023-09-18T12:42:24;14.97;;;12.33;;
79229;SDS011;68663;49.122;17.544;2023-09-18T12:44:51;15.07;;;13.60;;
79229;SDS011;68663;49.122;17.544;2023-09-18T12:47:17;13.57;;;12.32;;
79229;SDS011;68663;49.122;17.544;2023-09-18T12:49:43;15.85;;;12.73;;
79229;SDS011;68663;49.122;17.544;2023-09-18T12:52:08;15.82;;;13.57;;
79229;SDS011;68663;49.122;17.544;2023-09-18T12:54:39;13.93;;;12.52;;
79229;SDS011;68663;49.122;17.544;2023-09-18T12:57:06;13.75;;;12.25;;
79229;SDS011;68663;49.122;17.544;2023-09-18T12:59:33;18.17;;;13.10;;
79229;SDS011;68663;49.122;17.544;2023-09-18T13:02:00;13.95;;;12.48;;
79229;SDS011;68663;49.122;17.544;2023-09-18T13:04:29;14.48;;;12.98;;
79229;SDS011;68663;49.122;17.544;2023-09-18T13:07:09;12.65;;;11.35;;
79229;SDS011;68663;49.122;17.544;2023-09-18T13:09:36;13.70;;;12.30;;
79229;SDS011;68663;49.122;17.544;2023-09-18T13:12:02;21.10;;;13.27;;
79229;SDS011;68663;49.122;17.544;2023-09-18T13:14:28;17.90;;;13.27;;
79229;SDS011;68663;49.122;17.544;2023-09-18T13:17:00;16.70;;;13.43;;
79229;SDS011;68663;49.122;17.544;2023-09-18T13:19:28;14.43;;;12.73;;
79229;SDS011;68663;49.122;17.544;2023-09-18T13:21:53;16.08;;;12.27;;
79229;SDS011;68663;49.122;17.544;2023-09-18T13:24:26;15.18;;;12.60;;
79229;SDS011;68663;49.122;17.544;2023-09-18T13:26:53;13.88;;;12.45;;
79229;SDS011;68663;49.122;17.544;2023-09-18T13:29:19;13.32;;;11.52;;
79229;SDS011;68663;49.122;17.544;2023-09-18T13:31:44;14.95;;;12.25;;
79229;SDS011;68663;49.122;17.544;2023-09-18T13:34:11;13.55;;;12.05;;
79229;SDS011;68663;49.122;17.544;2023-09-18T13:36:36;13.52;;;12.13;;
79229;SDS011;68663;49.122;17.544;2023-09-18T13:39:02;16.15;;;12.48;;
79229;SDS011;68663;49.122;17.544;2023-09-18T13:41:28;14.25;;;12.13;;
79229;SDS011;68663;49.122;17.544;2023-09-18T13:43:54;16.08;;;14.05;;
79229;SDS011;68663;49.122;17.544;2023-09-18T13:46:21;13.60;;;12.20;;
79229;SDS011;68663;49.122;17.544;2023-09-18T13:48:47;13.88;;;12.27;;
79229;SDS011;68663;49.122;17.544;2023-09-18T13:51:13;13.38;;;11.77;;
79229;SDS011;68663;49.122;17.544;2023-09-18T13:53:39;14.68;;;13.15;;
79229;SDS011;68663;49.122;17.544;2023-09-18T13:56:06;16.30;;;12.68;;
79229;SDS011;68663;49.122;17.544;2023-09-18T13:58:32;15.43;;;12.45;;
79229;SDS011;68663;49.122;17.544;2023-09-18T14:00:57;14.43;;;12.30;;
79229;SDS011;68663;49.122;17.544;2023-09-18T14:03:23;14.18;;;12.68;;
79229;SDS011;68663;49.122;17.544;2023-09-18T14:05:49;14.15;;;12.73;;
79229;SDS011;68663;49.122;17.544;2023-09-18T14:08:15;14.35;;;12.95;;
79229;SDS011;68663;49.122;17.544;2023-09-18T14:10:42;14.23;;;12.80;;
79229;SDS011;68663;49.122;17.544;2023-09-18T14:13:08;15.77;;;13.52;;
79229;SDS011;68663;49.122;17.544;2023-09-18T14:15:33;14.70;;;13.20;;
79229;SDS011;68663;49.122;17.544;2023-09-18T14:17:58;14.63;;;13.23;;
79229;SDS011;68663;49.122;17.544;2023-09-18T14:20:24;16.02;;;12.00;;
79229;SDS011;68663;49.122;17.544;2023-09-18T14:22:49;15.20;;;12.85;;
79229;SDS011;68663;49.122;17.544;2023-09-18T14:25:15;14.52;;;12.35;;
79229;SDS011;68663;49.122;17.544;2023-09-18T14:27:41;14.25;;;12.75;;
79229;SDS011;68663;49.122;17.544;2023-09-18T14:30:07;14.45;;;12.93;;
79229;SDS011;68663;49.122;17.544;2023-09-18T14:32:33;14.82;;;11.98;;
79229;SDS011;68663;49.122;17.544;2023-09-18T14:35:01;15.20;;;13.05;;
79229;SDS011;68663;49.122;17.544;2023-09-18T14:37:27;19.02;;;11.85;;
79229;SDS011;68663;49.122;17.544;2023-09-18T14:39:53;13.30;;;11.85;;